Terminal Aerodrome Forecast
Issued by NWS

Home | Current Version | Previous Version | Graphics & Text | Print | Product List | Glossary On
Versions: 1 2 3 4 5 6 7 8 9 10 11 12 13 14 15 16 17 18 19 20 21 22 23 24 25 26 27 28 29 30 31 32 33
000
FTUS43 KLOT 281900 AAA
TAFMDW
TAF AMD
KMDW 281955Z 2820/2918 17013G19KT P6SM OVC200
     FM290100 17015G23KT P6SM SCT030 BKN150
     FM290500 17015G23KT P6SM VCSH SCT030 BKN100
     FM290900 23013KT 6SM -SHRA OVC015
     FM291200 28010KT 5SM -RASN BR OVC007
     FM291500 32016G27KT P6SM OVC015=

USA.gov is the U.S. government's official web portal to all federal, state and local government web resources and services.